FIN1990 EFHK-UUEE
Flight info
| Callsign | FIN1990 |
|---|---|
| Flight time | 1h 29m |
| Altitude | 37000 |
| Route | ARVEP T82 RATMU DCT INLOG T73 NAMIN NAMIN3E |
| Aircraft | B748/H-SDE3FGHIM1M2RWXY/LB1 |
Departure
| Time | 2026-04-24 18:58 |
|---|---|
| Airport | Helsinki Vantaa Airport (EFHK) |
Arrival
| Time | 2026-04-24 20:28 |
|---|---|
| Airport | Sheremetyevo International Airport (UUEE) |
| Time | Latitude | Longitude | Altitude | Speed | Heading |
|---|---|---|---|---|---|
| 2026-04-24 18:54 | 60.30984 | 24.93755 | 167 ft | 0 kts | 309° |
| 2026-04-24 18:55 | 60.30990 | 24.93740 | 167 ft | 3 kts | 308° |
| 2026-04-24 18:55 | 60.31020 | 24.93679 | 166 ft | 9 kts | 322° |
| 2026-04-24 18:55 | 60.31081 | 24.93628 | 165 ft | 9 kts | 357° |
| 2026-04-24 18:56 | 60.31135 | 24.93666 | 164 ft | 8 kts | 31° |
| 2026-04-24 18:56 | 60.31156 | 24.93701 | 164 ft | 0 kts | 44° |
| 2026-04-24 18:57 | 60.31175 | 24.93738 | 165 ft | 13 kts | 44° |
| 2026-04-24 18:58 | 60.31311 | 24.94033 | 167 ft | 56 kts | 49° |
| 2026-04-24 18:58 | 60.31786 | 24.95078 | 181 ft | 143 kts | 48° |
| 2026-04-24 18:58 | 60.32621 | 24.96929 | 266 ft | 204 kts | 47° |
| 2026-04-24 18:58 | 60.33596 | 24.99109 | 812 ft | 210 kts | 47° |
| 2026-04-24 18:59 | 60.34541 | 25.01404 | 1463 ft | 221 kts | 49° |
| 2026-04-24 18:59 | 60.35552 | 25.03836 | 2008 ft | 224 kts | 47° |
| 2026-04-24 18:59 | 60.36519 | 25.06183 | 2427 ft | 213 kts | 47° |
| 2026-04-24 18:59 | 60.37464 | 25.08463 | 2754 ft | 211 kts | 47° |
| 2026-04-24 19:00 | 60.38462 | 25.10599 | 3032 ft | 208 kts | 35° |
| 2026-04-24 19:00 | 60.39357 | 25.12887 | 3182 ft | 216 kts | 71° |
| 2026-04-24 19:00 | 60.39440 | 25.15956 | 3295 ft | 228 kts | 107° |
| 2026-04-24 19:00 | 60.38676 | 25.18837 | 3448 ft | 241 kts | 129° |
| 2026-04-24 19:01 | 60.37704 | 25.21689 | 3795 ft | 252 kts | 122° |
| 2026-04-24 19:01 | 60.36905 | 25.24875 | 4218 ft | 258 kts | 115° |
| 2026-04-24 19:01 | 60.36178 | 25.28244 | 4627 ft | 263 kts | 115° |
| 2026-04-24 19:01 | 60.35411 | 25.31628 | 5119 ft | 266 kts | 116° |
| 2026-04-24 19:02 | 60.34882 | 25.33859 | 5452 ft | 268 kts | 116° |
| 2026-04-24 19:02 | 60.33901 | 25.38524 | 6066 ft | 272 kts | 102° |
| 2026-04-24 19:02 | 60.33563 | 25.42284 | 6540 ft | 274 kts | 99° |
| 2026-04-24 19:02 | 60.33276 | 25.46100 | 6999 ft | 276 kts | 99° |
| 2026-04-24 19:03 | 60.32962 | 25.49936 | 7474 ft | 278 kts | 100° |
| 2026-04-24 19:03 | 60.32625 | 25.53774 | 7945 ft | 279 kts | 101° |
| 2026-04-24 19:03 | 60.32287 | 25.57644 | 8410 ft | 280 kts | 100° |
| 2026-04-24 19:03 | 60.31954 | 25.61528 | 8860 ft | 281 kts | 100° |
| 2026-04-24 19:04 | 60.31618 | 25.65437 | 9319 ft | 282 kts | 100° |
| 2026-04-24 19:04 | 60.31279 | 25.69339 | 9765 ft | 283 kts | 100° |
| 2026-04-24 19:04 | 60.30938 | 25.73249 | 10199 ft | 283 kts | 100° |
| 2026-04-24 19:04 | 60.30598 | 25.77149 | 10632 ft | 284 kts | 100° |
| 2026-04-24 19:05 | 60.30253 | 25.81079 | 11062 ft | 285 kts | 100° |
| 2026-04-24 19:05 | 60.29906 | 25.85024 | 11464 ft | 285 kts | 101° |
| 2026-04-24 19:05 | 60.29558 | 25.88966 | 11864 ft | 285 kts | 101° |
| 2026-04-24 19:05 | 60.29208 | 25.92906 | 12249 ft | 286 kts | 101° |
| 2026-04-24 19:06 | 60.28859 | 25.96832 | 12635 ft | 286 kts | 101° |
| 2026-04-24 19:06 | 60.28504 | 26.00803 | 12999 ft | 287 kts | 101° |
| 2026-04-24 19:06 | 60.28150 | 26.04758 | 13367 ft | 287 kts | 101° |
| 2026-04-24 19:06 | 60.27793 | 26.08726 | 13720 ft | 287 kts | 101° |
| 2026-04-24 19:07 | 60.27435 | 26.12694 | 14067 ft | 288 kts | 101° |
| 2026-04-24 19:07 | 60.27077 | 26.16649 | 14424 ft | 287 kts | 101° |
| 2026-04-24 19:07 | 60.26840 | 26.19265 | 14646 ft | 287 kts | 101° |
| 2026-04-24 19:07 | 60.26359 | 26.24540 | 15078 ft | 287 kts | 101° |
| 2026-04-24 19:08 | 60.26119 | 26.27157 | 15284 ft | 287 kts | 101° |
| 2026-04-24 19:08 | 60.25755 | 26.31123 | 15591 ft | 287 kts | 101° |
| 2026-04-24 19:08 | 60.25391 | 26.35081 | 15886 ft | 287 kts | 101° |
| 2026-04-24 19:08 | 60.25026 | 26.39037 | 16176 ft | 288 kts | 101° |
| 2026-04-24 19:09 | 60.24668 | 26.42997 | 16465 ft | 288 kts | 100° |
| 2026-04-24 19:09 | 60.24338 | 26.46981 | 16740 ft | 288 kts | 99° |
| 2026-04-24 19:09 | 60.24007 | 26.50957 | 17016 ft | 288 kts | 100° |
| 2026-04-24 19:09 | 60.23569 | 26.54926 | 17279 ft | 293 kts | 110° |
| 2026-04-24 19:10 | 60.22922 | 26.58863 | 17628 ft | 299 kts | 108° |
| 2026-04-24 19:10 | 60.22291 | 26.62887 | 18021 ft | 304 kts | 108° |
| 2026-04-24 19:10 | 60.21643 | 26.66970 | 18447 ft | 308 kts | 108° |
| 2026-04-24 19:10 | 60.20979 | 26.71088 | 18892 ft | 311 kts | 108° |
| 2026-04-24 19:11 | 60.20309 | 26.75236 | 19335 ft | 313 kts | 108° |
| 2026-04-24 19:11 | 60.19635 | 26.79418 | 19778 ft | 315 kts | 108° |
| 2026-04-24 19:11 | 60.18959 | 26.83605 | 20220 ft | 317 kts | 108° |
| 2026-04-24 19:11 | 60.18273 | 26.87833 | 20638 ft | 319 kts | 109° |
| 2026-04-24 19:12 | 60.17581 | 26.92092 | 21045 ft | 322 kts | 109° |
| 2026-04-24 19:12 | 60.16992 | 26.96448 | 21437 ft | 324 kts | 100° |
| 2026-04-24 19:12 | 60.16573 | 27.00904 | 21838 ft | 325 kts | 101° |
| 2026-04-24 19:12 | 60.16129 | 27.05370 | 22251 ft | 327 kts | 102° |
| 2026-04-24 19:13 | 60.15830 | 27.08391 | 22521 ft | 328 kts | 101° |
| 2026-04-24 19:13 | 60.15251 | 27.14354 | 23043 ft | 329 kts | 101° |
| 2026-04-24 19:13 | 60.14810 | 27.18869 | 23427 ft | 330 kts | 101° |
| 2026-04-24 19:13 | 60.14363 | 27.23395 | 23813 ft | 331 kts | 102° |
| 2026-04-24 19:14 | 60.13916 | 27.27911 | 24179 ft | 332 kts | 102° |
| 2026-04-24 19:14 | 60.13464 | 27.32465 | 24540 ft | 333 kts | 102° |
| 2026-04-24 19:14 | 60.13008 | 27.37051 | 24888 ft | 334 kts | 102° |
| 2026-04-24 19:14 | 60.12550 | 27.41628 | 25232 ft | 335 kts | 102° |
| 2026-04-24 19:15 | 60.12090 | 27.46213 | 25568 ft | 336 kts | 102° |
| 2026-04-24 19:15 | 60.11627 | 27.50808 | 25892 ft | 337 kts | 102° |
| 2026-04-24 19:15 | 60.11161 | 27.55416 | 26216 ft | 338 kts | 102° |
| 2026-04-24 19:15 | 60.10692 | 27.60039 | 26540 ft | 339 kts | 102° |
| 2026-04-24 19:16 | 60.09744 | 27.69327 | 27155 ft | 341 kts | 102° |
| 2026-04-24 19:16 | 60.09265 | 27.73996 | 27449 ft | 343 kts | 102° |
| 2026-04-24 19:16 | 60.08783 | 27.78682 | 27757 ft | 344 kts | 102° |
| 2026-04-24 19:17 | 60.08297 | 27.83381 | 28050 ft | 345 kts | 102° |
| 2026-04-24 19:17 | 60.07810 | 27.88070 | 28342 ft | 346 kts | 102° |
| 2026-04-24 19:17 | 60.07316 | 27.92809 | 28643 ft | 348 kts | 102° |
| 2026-04-24 19:17 | 60.06820 | 27.97563 | 28926 ft | 349 kts | 102° |
| 2026-04-24 19:18 | 60.06319 | 28.02335 | 29200 ft | 351 kts | 102° |
| 2026-04-24 19:18 | 60.05816 | 28.07107 | 29495 ft | 352 kts | 102° |
| 2026-04-24 19:18 | 60.05308 | 28.11913 | 29782 ft | 353 kts | 102° |
| 2026-04-24 19:18 | 60.04796 | 28.16734 | 30058 ft | 354 kts | 102° |
| 2026-04-24 19:19 | 60.04281 | 28.21570 | 30328 ft | 355 kts | 102° |
| 2026-04-24 19:19 | 60.03765 | 28.26402 | 30590 ft | 357 kts | 102° |
| 2026-04-24 19:19 | 60.03243 | 28.31265 | 30859 ft | 357 kts | 102° |
| 2026-04-24 19:19 | 60.02720 | 28.36121 | 31113 ft | 359 kts | 102° |
| 2026-04-24 19:20 | 60.02190 | 28.41028 | 31371 ft | 360 kts | 102° |
| 2026-04-24 19:20 | 60.01658 | 28.45923 | 31607 ft | 361 kts | 102° |
| 2026-04-24 19:20 | 60.01124 | 28.50825 | 31851 ft | 362 kts | 103° |
| 2026-04-24 19:20 | 60.00587 | 28.55742 | 32084 ft | 363 kts | 103° |
| 2026-04-24 19:21 | 60.00047 | 28.60662 | 32314 ft | 363 kts | 103° |
| 2026-04-24 19:21 | 59.99503 | 28.65600 | 32539 ft | 364 kts | 103° |
| 2026-04-24 19:21 | 59.98955 | 28.70553 | 32756 ft | 365 kts | 103° |
| 2026-04-24 19:21 | 59.98405 | 28.75511 | 32968 ft | 366 kts | 103° |
| 2026-04-24 19:22 | 59.98032 | 28.78862 | 33116 ft | 367 kts | 103° |
| 2026-04-24 19:22 | 59.97291 | 28.85422 | 33379 ft | 368 kts | 103° |
| 2026-04-24 19:22 | 59.96705 | 28.90405 | 33585 ft | 369 kts | 103° |
| 2026-04-24 19:22 | 59.96117 | 28.95379 | 33780 ft | 369 kts | 103° |
| 2026-04-24 19:23 | 59.95531 | 29.00407 | 33976 ft | 370 kts | 103° |
| 2026-04-24 19:23 | 59.94947 | 29.05410 | 34160 ft | 371 kts | 103° |
| 2026-04-24 19:23 | 59.94355 | 29.10429 | 34339 ft | 372 kts | 103° |
| 2026-04-24 19:23 | 59.93758 | 29.15454 | 34513 ft | 372 kts | 103° |
| 2026-04-24 19:24 | 59.93161 | 29.20486 | 34686 ft | 373 kts | 103° |
| 2026-04-24 19:24 | 59.92560 | 29.25534 | 34857 ft | 374 kts | 103° |
| 2026-04-24 19:24 | 59.91956 | 29.30590 | 35025 ft | 375 kts | 104° |
| 2026-04-24 19:24 | 59.91348 | 29.35652 | 35186 ft | 376 kts | 104° |
| 2026-04-24 19:25 | 59.90738 | 29.40717 | 35341 ft | 376 kts | 104° |
| 2026-04-24 19:25 | 59.90117 | 29.45854 | 35492 ft | 377 kts | 104° |
| 2026-04-24 19:25 | 59.89509 | 29.50864 | 35644 ft | 377 kts | 104° |
| 2026-04-24 19:25 | 59.88890 | 29.55945 | 35789 ft | 378 kts | 104° |
| 2026-04-24 19:26 | 59.88269 | 29.61033 | 35925 ft | 379 kts | 104° |
| 2026-04-24 19:26 | 59.87644 | 29.66136 | 36066 ft | 379 kts | 104° |
| 2026-04-24 19:26 | 59.87015 | 29.71243 | 36183 ft | 380 kts | 104° |
| 2026-04-24 19:26 | 59.86385 | 29.76349 | 36318 ft | 380 kts | 104° |
| 2026-04-24 19:27 | 59.85742 | 29.81532 | 36433 ft | 381 kts | 104° |
| 2026-04-24 19:27 | 59.85107 | 29.86643 | 36544 ft | 382 kts | 104° |
| 2026-04-24 19:27 | 59.84467 | 29.91776 | 36659 ft | 382 kts | 104° |
| 2026-04-24 19:27 | 59.83824 | 29.96905 | 36772 ft | 383 kts | 104° |
| 2026-04-24 19:28 | 59.83178 | 30.02051 | 36874 ft | 384 kts | 104° |
| 2026-04-24 19:28 | 59.82529 | 30.07194 | 36986 ft | 384 kts | 104° |
| 2026-04-24 19:28 | 59.81204 | 30.17578 | 37013 ft | 392 kts | 105° |
| 2026-04-24 19:29 | 59.79126 | 30.33563 | 37019 ft | 405 kts | 105° |
| 2026-04-24 19:30 | 59.77689 | 30.44542 | 37016 ft | 416 kts | 105° |
| 2026-04-24 19:30 | 59.76206 | 30.55789 | 37016 ft | 428 kts | 105° |
| 2026-04-24 19:31 | 59.74671 | 30.67347 | 37016 ft | 439 kts | 105° |
| 2026-04-24 19:31 | 59.73090 | 30.79158 | 37016 ft | 452 kts | 105° |
| 2026-04-24 19:32 | 59.71431 | 30.91461 | 37015 ft | 464 kts | 105° |
| 2026-04-24 19:32 | 59.69737 | 31.03923 | 37011 ft | 470 kts | 105° |
| 2026-04-24 19:33 | 59.67896 | 31.16337 | 37039 ft | 469 kts | 115° |
| 2026-04-24 19:33 | 59.64889 | 31.27692 | 37003 ft | 470 kts | 120° |
| 2026-04-24 19:34 | 59.61768 | 31.39023 | 37004 ft | 470 kts | 118° |
| 2026-04-24 19:34 | 59.58667 | 31.50387 | 37007 ft | 470 kts | 119° |
| 2026-04-24 19:35 | 59.55529 | 31.61711 | 37009 ft | 470 kts | 119° |
| 2026-04-24 19:35 | 59.52402 | 31.73019 | 37008 ft | 470 kts | 119° |
| 2026-04-24 19:36 | 59.49212 | 31.84273 | 37012 ft | 469 kts | 126° |
| 2026-04-24 19:36 | 59.45032 | 31.94120 | 37010 ft | 468 kts | 133° |
| 2026-04-24 19:37 | 59.40706 | 32.03668 | 37010 ft | 468 kts | 131° |
| 2026-04-24 19:37 | 59.36420 | 32.13290 | 37008 ft | 468 kts | 132° |
| 2026-04-24 19:38 | 59.32113 | 32.22807 | 37006 ft | 468 kts | 132° |
| 2026-04-24 19:38 | 59.27802 | 32.32358 | 37008 ft | 468 kts | 132° |
| 2026-04-24 19:39 | 59.23464 | 32.41896 | 37008 ft | 468 kts | 132° |
| 2026-04-24 19:39 | 59.19150 | 32.51358 | 37008 ft | 468 kts | 132° |
| 2026-04-24 19:40 | 59.14812 | 32.60824 | 37005 ft | 467 kts | 133° |
| 2026-04-24 19:40 | 59.10477 | 32.70250 | 37005 ft | 467 kts | 133° |
| 2026-04-24 19:41 | 59.06134 | 32.79653 | 37005 ft | 468 kts | 133° |
| 2026-04-24 19:41 | 59.01768 | 32.89068 | 37005 ft | 467 kts | 133° |
| 2026-04-24 19:42 | 58.97412 | 32.98422 | 37005 ft | 468 kts | 133° |
| 2026-04-24 19:42 | 58.93043 | 33.07765 | 37007 ft | 468 kts | 133° |
| 2026-04-24 19:43 | 58.88651 | 33.17073 | 37007 ft | 468 kts | 137° |
| 2026-04-24 19:43 | 58.84031 | 33.25926 | 37003 ft | 468 kts | 136° |
| 2026-04-24 19:44 | 58.79420 | 33.34783 | 37004 ft | 467 kts | 136° |
| 2026-04-24 19:44 | 58.74809 | 33.43549 | 37003 ft | 467 kts | 136° |
| 2026-04-24 19:45 | 58.70179 | 33.52355 | 37005 ft | 468 kts | 136° |
| 2026-04-24 19:45 | 58.65532 | 33.61135 | 37008 ft | 469 kts | 136° |
| 2026-04-24 19:46 | 58.60879 | 33.69905 | 37009 ft | 469 kts | 136° |
| 2026-04-24 19:46 | 58.56208 | 33.78668 | 37009 ft | 468 kts | 136° |
| 2026-04-24 19:47 | 58.51561 | 33.87354 | 37007 ft | 468 kts | 136° |
| 2026-04-24 19:47 | 58.47688 | 33.94566 | 37005 ft | 467 kts | 136° |
| 2026-04-24 19:48 | 58.43022 | 34.03224 | 37005 ft | 468 kts | 136° |
| 2026-04-24 19:48 | 58.36057 | 34.16088 | 36985 ft | 452 kts | 137° |
| 2026-04-24 19:49 | 58.31645 | 34.24197 | 36802 ft | 433 kts | 137° |
| 2026-04-24 19:49 | 58.27312 | 34.32130 | 35946 ft | 431 kts | 137° |
| 2026-04-24 19:50 | 58.20897 | 34.43827 | 34699 ft | 420 kts | 137° |
| 2026-04-24 19:50 | 58.18800 | 34.47637 | 34286 ft | 416 kts | 137° |
| 2026-04-24 19:51 | 58.14661 | 34.55137 | 33468 ft | 407 kts | 137° |
| 2026-04-24 19:51 | 58.12626 | 34.58817 | 33056 ft | 402 kts | 137° |
| 2026-04-24 19:52 | 58.08618 | 34.66044 | 32234 ft | 394 kts | 137° |
| 2026-04-24 19:52 | 58.06652 | 34.69580 | 31820 ft | 390 kts | 137° |
| 2026-04-24 19:52 | 58.04701 | 34.73083 | 31410 ft | 386 kts | 137° |
| 2026-04-24 19:52 | 58.02753 | 34.76576 | 31000 ft | 382 kts | 137° |
| 2026-04-24 19:53 | 58.00835 | 34.80010 | 30587 ft | 379 kts | 137° |
| 2026-04-24 19:53 | 57.98931 | 34.83414 | 30182 ft | 375 kts | 137° |
| 2026-04-24 19:53 | 57.95184 | 34.90096 | 29371 ft | 368 kts | 137° |
| 2026-04-24 19:54 | 57.93334 | 34.93389 | 28979 ft | 365 kts | 137° |
| 2026-04-24 19:54 | 57.91492 | 34.96662 | 28557 ft | 362 kts | 138° |
| 2026-04-24 19:54 | 57.89664 | 34.99904 | 28146 ft | 359 kts | 138° |
| 2026-04-24 19:54 | 57.87853 | 35.03112 | 27749 ft | 356 kts | 138° |
| 2026-04-24 19:55 | 57.86663 | 35.05218 | 27464 ft | 355 kts | 138° |
| 2026-04-24 19:55 | 57.84274 | 35.09439 | 26936 ft | 351 kts | 138° |
| 2026-04-24 19:55 | 57.82499 | 35.12570 | 26545 ft | 348 kts | 138° |
| 2026-04-24 19:55 | 57.80742 | 35.15664 | 26132 ft | 346 kts | 138° |
| 2026-04-24 19:56 | 57.78983 | 35.18759 | 25727 ft | 344 kts | 138° |
| 2026-04-24 19:56 | 57.77245 | 35.21812 | 25323 ft | 341 kts | 138° |
| 2026-04-24 19:56 | 57.75526 | 35.24827 | 24925 ft | 339 kts | 138° |
| 2026-04-24 19:56 | 57.73813 | 35.27828 | 24525 ft | 337 kts | 138° |
| 2026-04-24 19:57 | 57.72097 | 35.30830 | 24123 ft | 335 kts | 138° |
| 2026-04-24 19:57 | 57.70399 | 35.33796 | 23735 ft | 333 kts | 138° |
| 2026-04-24 19:57 | 57.68718 | 35.36728 | 23329 ft | 331 kts | 138° |
| 2026-04-24 19:57 | 57.67036 | 35.39660 | 22924 ft | 330 kts | 138° |
| 2026-04-24 19:58 | 57.65361 | 35.42574 | 22520 ft | 328 kts | 138° |
| 2026-04-24 19:58 | 57.63700 | 35.45461 | 22138 ft | 326 kts | 138° |
| 2026-04-24 19:58 | 57.62041 | 35.48338 | 21740 ft | 324 kts | 138° |
| 2026-04-24 19:58 | 57.60394 | 35.51185 | 21360 ft | 322 kts | 140° |
| 2026-04-24 19:59 | 57.58648 | 35.53778 | 20961 ft | 320 kts | 142° |
| 2026-04-24 19:59 | 57.56968 | 35.56413 | 20576 ft | 319 kts | 141° |
| 2026-04-24 19:59 | 57.55255 | 35.59104 | 20157 ft | 318 kts | 142° |
| 2026-04-24 19:59 | 57.53528 | 35.61719 | 19743 ft | 317 kts | 142° |
| 2026-04-24 20:00 | 57.51842 | 35.64252 | 19359 ft | 316 kts | 142° |
| 2026-04-24 20:00 | 57.50145 | 35.66830 | 18960 ft | 315 kts | 142° |
| 2026-04-24 20:00 | 57.48451 | 35.69411 | 18577 ft | 314 kts | 142° |
| 2026-04-24 20:00 | 57.46760 | 35.71976 | 18181 ft | 313 kts | 142° |
| 2026-04-24 20:01 | 57.45079 | 35.74517 | 17799 ft | 312 kts | 142° |
| 2026-04-24 20:01 | 57.43397 | 35.77057 | 17398 ft | 311 kts | 142° |
| 2026-04-24 20:01 | 57.41725 | 35.79583 | 17071 ft | 307 kts | 142° |
| 2026-04-24 20:01 | 57.40078 | 35.82067 | 16814 ft | 302 kts | 142° |
| 2026-04-24 20:02 | 57.38974 | 35.83731 | 16632 ft | 299 kts | 142° |
| 2026-04-24 20:02 | 57.36867 | 35.86900 | 16387 ft | 292 kts | 142° |
| 2026-04-24 20:02 | 57.35276 | 35.89288 | 16200 ft | 294 kts | 142° |
| 2026-04-24 20:02 | 57.33694 | 35.91663 | 16022 ft | 293 kts | 142° |
| 2026-04-24 20:03 | 57.32122 | 35.94021 | 15847 ft | 292 kts | 142° |
| 2026-04-24 20:03 | 57.30541 | 35.96388 | 15683 ft | 292 kts | 142° |
| 2026-04-24 20:03 | 57.28969 | 35.98740 | 15497 ft | 291 kts | 142° |
| 2026-04-24 20:03 | 57.27394 | 36.01092 | 15332 ft | 290 kts | 142° |
| 2026-04-24 20:04 | 57.25818 | 36.03444 | 15128 ft | 290 kts | 142° |
| 2026-04-24 20:04 | 57.24251 | 36.05780 | 14977 ft | 289 kts | 142° |
| 2026-04-24 20:04 | 57.22692 | 36.08101 | 14842 ft | 288 kts | 142° |
| 2026-04-24 20:04 | 57.21123 | 36.10434 | 14739 ft | 294 kts | 142° |
| 2026-04-24 20:05 | 57.19541 | 36.12784 | 14634 ft | 293 kts | 142° |
| 2026-04-24 20:05 | 57.17950 | 36.15147 | 14496 ft | 293 kts | 142° |
| 2026-04-24 20:05 | 57.16365 | 36.17496 | 14388 ft | 293 kts | 142° |
| 2026-04-24 20:05 | 57.14775 | 36.19850 | 14278 ft | 293 kts | 143° |
| 2026-04-24 20:06 | 57.13183 | 36.22204 | 14142 ft | 292 kts | 143° |
| 2026-04-24 20:06 | 57.11599 | 36.24545 | 14022 ft | 291 kts | 143° |
| 2026-04-24 20:06 | 57.10023 | 36.26870 | 13873 ft | 291 kts | 143° |
| 2026-04-24 20:06 | 57.08442 | 36.29200 | 13671 ft | 290 kts | 143° |
| 2026-04-24 20:07 | 57.07400 | 36.30734 | 13539 ft | 291 kts | 143° |
| 2026-04-24 20:07 | 57.05253 | 36.33892 | 13283 ft | 295 kts | 143° |
| 2026-04-24 20:07 | 57.03647 | 36.36251 | 13084 ft | 295 kts | 143° |
| 2026-04-24 20:07 | 57.02039 | 36.38595 | 12903 ft | 295 kts | 143° |
| 2026-04-24 20:08 | 57.00449 | 36.40884 | 12663 ft | 294 kts | 143° |
| 2026-04-24 20:08 | 56.98825 | 36.43223 | 12421 ft | 293 kts | 143° |
| 2026-04-24 20:08 | 56.97247 | 36.45504 | 12107 ft | 292 kts | 143° |
| 2026-04-24 20:08 | 56.95659 | 36.47796 | 11807 ft | 290 kts | 143° |
| 2026-04-24 20:09 | 56.94074 | 36.50078 | 11504 ft | 289 kts | 143° |
| 2026-04-24 20:09 | 56.92498 | 36.52344 | 11195 ft | 287 kts | 143° |
| 2026-04-24 20:09 | 56.90930 | 36.54598 | 10898 ft | 287 kts | 143° |
| 2026-04-24 20:09 | 56.89363 | 36.56847 | 10602 ft | 286 kts | 143° |
| 2026-04-24 20:10 | 56.87803 | 36.59084 | 10293 ft | 285 kts | 143° |
| 2026-04-24 20:10 | 56.86247 | 36.61309 | 10016 ft | 283 kts | 143° |
| 2026-04-24 20:10 | 56.84698 | 36.63518 | 9747 ft | 281 kts | 143° |
| 2026-04-24 20:10 | 56.83170 | 36.65693 | 9489 ft | 279 kts | 143° |
| 2026-04-24 20:11 | 56.81638 | 36.67869 | 9229 ft | 278 kts | 144° |
| 2026-04-24 20:11 | 56.80109 | 36.70033 | 8988 ft | 277 kts | 144° |
| 2026-04-24 20:11 | 56.78589 | 36.72178 | 8735 ft | 276 kts | 144° |
| 2026-04-24 20:11 | 56.77068 | 36.74321 | 8492 ft | 276 kts | 144° |
| 2026-04-24 20:12 | 56.75554 | 36.76446 | 8237 ft | 275 kts | 144° |
| 2026-04-24 20:12 | 56.74030 | 36.78579 | 7992 ft | 274 kts | 144° |
| 2026-04-24 20:12 | 56.72529 | 36.80676 | 7845 ft | 269 kts | 144° |
| 2026-04-24 20:12 | 56.71050 | 36.82738 | 7654 ft | 263 kts | 144° |
| 2026-04-24 20:13 | 56.69612 | 36.84741 | 7452 ft | 264 kts | 144° |
| 2026-04-24 20:13 | 56.68163 | 36.86754 | 7253 ft | 262 kts | 144° |
| 2026-04-24 20:13 | 56.66715 | 36.88759 | 7054 ft | 261 kts | 144° |
| 2026-04-24 20:13 | 56.65295 | 36.90826 | 6863 ft | 261 kts | 144° |
| 2026-04-24 20:14 | 56.63851 | 36.92811 | 6656 ft | 260 kts | 144° |
| 2026-04-24 20:14 | 56.62436 | 36.94847 | 6402 ft | 259 kts | 142° |
| 2026-04-24 20:14 | 56.61122 | 36.97106 | 6057 ft | 257 kts | 133° |
| 2026-04-24 20:14 | 56.59990 | 36.99640 | 5909 ft | 258 kts | 126° |
| 2026-04-24 20:15 | 56.59042 | 37.02381 | 6177 ft | 257 kts | 122° |
| 2026-04-24 20:15 | 56.58059 | 37.05143 | 6517 ft | 264 kts | 126° |
| 2026-04-24 20:15 | 56.56988 | 37.07826 | 6345 ft | 264 kts | 128° |
| 2026-04-24 20:15 | 56.55954 | 37.10536 | 5725 ft | 263 kts | 124° |
| 2026-04-24 20:16 | 56.54775 | 37.13181 | 4444 ft | 279 kts | 140° |
| 2026-04-24 20:16 | 56.53218 | 37.15502 | 3308 ft | 289 kts | 135° |
| 2026-04-24 20:16 | 56.51942 | 37.17933 | 3728 ft | 252 kts | 140° |
| 2026-04-24 20:16 | 56.50486 | 37.19519 | 4462 ft | 240 kts | 165° |
| 2026-04-24 20:17 | 56.48832 | 37.20091 | 4838 ft | 248 kts | 174° |
| 2026-04-24 20:17 | 56.45419 | 37.21098 | 4331 ft | 248 kts | 170° |
| 2026-04-24 20:17 | 56.43693 | 37.21540 | 3576 ft | 252 kts | 175° |
| 2026-04-24 20:18 | 56.42615 | 37.22062 | 3673 ft | 237 kts | 163° |
| 2026-04-24 20:18 | 56.40450 | 37.23347 | 3638 ft | 250 kts | 166° |
| 2026-04-24 20:18 | 56.38748 | 37.23849 | 3101 ft | 239 kts | 180° |
| 2026-04-24 20:18 | 56.37275 | 37.24396 | 3265 ft | 199 kts | 169° |
| 2026-04-24 20:19 | 56.35995 | 37.24940 | 3041 ft | 182 kts | 169° |
| 2026-04-24 20:19 | 56.34758 | 37.25465 | 2904 ft | 192 kts | 167° |
| 2026-04-24 20:19 | 56.33404 | 37.25979 | 2877 ft | 202 kts | 173° |
| 2026-04-24 20:19 | 56.32049 | 37.26382 | 3082 ft | 192 kts | 172° |
| 2026-04-24 20:20 | 56.30750 | 37.26846 | 3087 ft | 190 kts | 169° |
| 2026-04-24 20:20 | 56.29456 | 37.27428 | 2997 ft | 196 kts | 168° |
| 2026-04-24 20:20 | 56.28121 | 37.28082 | 2903 ft | 199 kts | 168° |
| 2026-04-24 20:20 | 56.26760 | 37.28627 | 2798 ft | 201 kts | 169° |
| 2026-04-24 20:21 | 56.25387 | 37.29223 | 2613 ft | 205 kts | 166° |
| 2026-04-24 20:21 | 56.24058 | 37.29871 | 2726 ft | 190 kts | 165° |
| 2026-04-24 20:21 | 56.22850 | 37.30497 | 2587 ft | 180 kts | 166° |
| 2026-04-24 20:21 | 56.21621 | 37.31079 | 2429 ft | 173 kts | 168° |
| 2026-04-24 20:22 | 56.20501 | 37.31579 | 2550 ft | 166 kts | 167° |
| 2026-04-24 20:22 | 56.19356 | 37.32097 | 2824 ft | 171 kts | 168° |
| 2026-04-24 20:22 | 56.18177 | 37.32557 | 3145 ft | 180 kts | 171° |
| 2026-04-24 20:22 | 56.16877 | 37.32996 | 3308 ft | 197 kts | 171° |
| 2026-04-24 20:23 | 56.15524 | 37.33502 | 3265 ft | 203 kts | 168° |
| 2026-04-24 20:23 | 56.14102 | 37.34097 | 2955 ft | 209 kts | 168° |
| 2026-04-24 20:23 | 56.12747 | 37.34608 | 2885 ft | 191 kts | 169° |
| 2026-04-24 20:23 | 56.11488 | 37.35112 | 2776 ft | 180 kts | 168° |
| 2026-04-24 20:24 | 56.10693 | 37.35408 | 2773 ft | 170 kts | 173° |
| 2026-04-24 20:24 | 56.09189 | 37.35246 | 2678 ft | 162 kts | 195° |
| 2026-04-24 20:24 | 56.08038 | 37.34753 | 2884 ft | 176 kts | 198° |
| 2026-04-24 20:24 | 56.06884 | 37.34143 | 3249 ft | 167 kts | 195° |
| 2026-04-24 20:25 | 56.05689 | 37.33702 | 2979 ft | 188 kts | 188° |
| 2026-04-24 20:25 | 56.04339 | 37.33699 | 2778 ft | 196 kts | 182° |
| 2026-04-24 20:25 | 56.03010 | 37.33411 | 2767 ft | 186 kts | 192° |
| 2026-04-24 20:25 | 56.01752 | 37.33455 | 2610 ft | 181 kts | 170° |
| 2026-04-24 20:26 | 56.00523 | 37.33874 | 2495 ft | 176 kts | 176° |
| 2026-04-24 20:26 | 55.99377 | 37.34226 | 2329 ft | 163 kts | 162° |
| 2026-04-24 20:26 | 55.98336 | 37.35130 | 1965 ft | 170 kts | 149° |
| 2026-04-24 20:26 | 55.97493 | 37.36522 | 1719 ft | 161 kts | 124° |
| 2026-04-24 20:27 | 55.97057 | 37.38382 | 1273 ft | 164 kts | 97° |
| 2026-04-24 20:27 | 55.97236 | 37.40416 | 745 ft | 167 kts | 69° |
| 2026-04-24 20:27 | 55.97538 | 37.42295 | 647 ft | 145 kts | 76° |
| 2026-04-24 20:27 | 55.97729 | 37.43722 | 643 ft | 83 kts | 73° |
| 2026-04-24 20:28 | 55.97818 | 37.44248 | 641 ft | 6 kts | 65° |
| 2026-04-24 20:28 | 55.97818 | 37.44250 | 641 ft | 0 kts | 66° |